sensor_id;sensor_type;location;lat;lon;timestamp;pressure;altitude;pressure_sealevel;temperature;humidity
65800;BME280;52544;48.116;11.660;2023-12-29T00:01:42;95775.66;;;8.87;100.00
65800;BME280;52544;48.116;11.660;2023-12-29T00:04:08;95777.94;;;8.81;100.00
65800;BME280;52544;48.116;11.660;2023-12-29T00:06:33;95762.81;;;8.83;100.00
65800;BME280;52544;48.116;11.660;2023-12-29T00:08:58;95768.09;;;8.83;100.00
65800;BME280;52544;48.116;11.660;2023-12-29T00:11:25;95771.38;;;8.62;100.00
65800;BME280;52544;48.116;11.660;2023-12-29T00:13:50;95760.13;;;8.60;100.00
65800;BME280;52544;48.116;11.660;2023-12-29T00:16:16;95756.50;;;8.61;100.00
65800;BME280;52544;48.116;11.660;2023-12-29T00:18:41;95751.72;;;8.55;100.00
65800;BME280;52544;48.116;11.660;2023-12-29T00:21:06;95750.81;;;8.43;99.33
65800;BME280;52544;48.116;11.660;2023-12-29T00:23:32;95747.03;;;8.35;98.34
65800;BME280;52544;48.116;11.660;2023-12-29T00:25:58;95743.69;;;8.33;94.67
65800;BME280;52544;48.116;11.660;2023-12-29T00:28:23;95752.88;;;8.03;95.00
65800;BME280;52544;48.116;11.660;2023-12-29T00:30:48;95756.69;;;7.99;94.80
65800;BME280;52544;48.116;11.660;2023-12-29T00:33:14;95751.00;;;7.92;94.37
65800;BME280;52544;48.116;11.660;2023-12-29T00:35:39;95747.81;;;8.00;93.84
65800;BME280;52544;48.116;11.660;2023-12-29T00:38:05;95748.03;;;7.97;94.03
65800;BME280;52544;48.116;11.660;2023-12-29T00:40:32;95739.59;;;8.05;94.49
65800;BME280;52544;48.116;11.660;2023-12-29T00:42:57;95734.25;;;7.93;95.63
65800;BME280;52544;48.116;11.660;2023-12-29T00:45:22;95738.09;;;7.76;97.65
65800;BME280;52544;48.116;11.660;2023-12-29T00:47:48;95744.44;;;7.74;98.49
65800;BME280;52544;48.116;11.660;2023-12-29T00:50:16;95736.63;;;7.72;99.19
65800;BME280;52544;48.116;11.660;2023-12-29T00:52:41;95727.78;;;7.73;99.53
65800;BME280;52544;48.116;11.660;2023-12-29T00:55:07;95725.38;;;7.70;100.00
65800;BME280;52544;48.116;11.660;2023-12-29T00:57:32;95720.84;;;7.60;100.00
65800;BME280;52544;48.116;11.660;2023-12-29T00:59:59;95723.06;;;7.66;100.00
65800;BME280;52544;48.116;11.660;2023-12-29T01:02:25;95720.13;;;7.58;100.00
65800;BME280;52544;48.116;11.660;2023-12-29T01:04:50;95717.63;;;7.56;100.00
65800;BME280;52544;48.116;11.660;2023-12-29T01:07:15;95721.19;;;7.55;100.00
65800;BME280;52544;48.116;11.660;2023-12-29T01:09:41;95722.25;;;7.53;100.00
65800;BME280;52544;48.116;11.660;2023-12-29T01:12:07;95715.91;;;7.55;100.00
65800;BME280;52544;48.116;11.660;2023-12-29T01:14:32;95706.84;;;7.59;100.00
65800;BME280;52544;48.116;11.660;2023-12-29T01:16:57;95715.53;;;7.48;100.00
65800;BME280;52544;48.116;11.660;2023-12-29T01:19:23;95725.22;;;7.48;100.00
65800;BME280;52544;48.116;11.660;2023-12-29T01:21:48;95726.72;;;7.39;100.00
65800;BME280;52544;48.116;11.660;2023-12-29T01:24:13;95744.28;;;7.39;100.00
65800;BME280;52544;48.116;11.660;2023-12-29T01:26:40;95738.63;;;7.32;100.00
65800;BME280;52544;48.116;11.660;2023-12-29T01:29:05;95745.91;;;7.16;100.00
65800;BME280;52544;48.116;11.660;2023-12-29T01:31:31;95744.84;;;7.18;100.00
65800;BME280;52544;48.116;11.660;2023-12-29T01:33:57;95742.31;;;7.04;100.00
65800;BME280;52544;48.116;11.660;2023-12-29T01:36:23;95740.94;;;6.98;100.00
65800;BME280;52544;48.116;11.660;2023-12-29T01:38:48;95731.06;;;7.02;100.00
65800;BME280;52544;48.116;11.660;2023-12-29T01:41:14;95734.53;;;7.15;100.00
65800;BME280;52544;48.116;11.660;2023-12-29T01:46:32;95719.16;;;7.09;100.00
65800;BME280;52544;48.116;11.660;2023-12-29T01:48:59;95715.78;;;7.07;100.00
65800;BME280;52544;48.116;11.660;2023-12-29T01:51:26;95710.72;;;7.04;100.00
65800;BME280;52544;48.116;11.660;2023-12-29T01:53:56;95716.44;;;6.98;100.00
65800;BME280;52544;48.116;11.660;2023-12-29T01:56:22;95715.03;;;6.92;100.00
65800;BME280;52544;48.116;11.660;2023-12-29T01:58:49;95716.75;;;6.93;100.00
65800;BME280;52544;48.116;11.660;2023-12-29T02:01:17;95709.50;;;6.97;100.00
65800;BME280;52544;48.116;11.660;2023-12-29T02:03:44;95703.78;;;7.03;100.00
65800;BME280;52544;48.116;11.660;2023-12-29T02:06:10;95697.25;;;6.96;100.00
65800;BME280;52544;48.116;11.660;2023-12-29T02:08:37;95699.19;;;6.94;100.00
65800;BME280;52544;48.116;11.660;2023-12-29T02:11:04;95705.06;;;6.85;100.00
65800;BME280;52544;48.116;11.660;2023-12-29T02:13:29;95698.66;;;6.89;100.00
65800;BME280;52544;48.116;11.660;2023-12-29T02:15:58;95694.13;;;6.91;100.00
65800;BME280;52544;48.116;11.660;2023-12-29T02:18:26;95701.50;;;6.86;100.00
65800;BME280;52544;48.116;11.660;2023-12-29T02:20:55;95687.59;;;6.84;100.00
65800;BME280;52544;48.116;11.660;2023-12-29T02:23:20;95698.84;;;6.86;100.00
65800;BME280;52544;48.116;11.660;2023-12-29T02:25:46;95690.97;;;6.86;100.00
65800;BME280;52544;48.116;11.660;2023-12-29T02:28:19;95676.53;;;6.91;100.00
65800;BME280;52544;48.116;11.660;2023-12-29T02:31:04;95688.84;;;6.91;100.00
65800;BME280;52544;48.116;11.660;2023-12-29T02:33:32;95696.75;;;6.91;100.00
65800;BME280;52544;48.116;11.660;2023-12-29T02:36:01;95688.53;;;6.95;100.00
65800;BME280;52544;48.116;11.660;2023-12-29T02:38:28;95686.97;;;6.80;100.00
65800;BME280;52544;48.116;11.660;2023-12-29T02:40:57;95692.75;;;6.85;100.00
65800;BME280;52544;48.116;11.660;2023-12-29T02:43:23;95694.75;;;6.94;100.00
65800;BME280;52544;48.116;11.660;2023-12-29T02:45:48;95685.91;;;6.83;100.00
65800;BME280;52544;48.116;11.660;2023-12-29T02:48:14;95684.22;;;6.94;100.00
65800;BME280;52544;48.116;11.660;2023-12-29T02:50:39;95677.47;;;7.03;100.00
65800;BME280;52544;48.116;11.660;2023-12-29T02:53:05;95671.56;;;7.12;100.00
65800;BME280;52544;48.116;11.660;2023-12-29T02:55:31;95664.19;;;7.17;100.00
65800;BME280;52544;48.116;11.660;2023-12-29T02:57:56;95669.88;;;7.24;100.00
65800;BME280;52544;48.116;11.660;2023-12-29T03:00:22;95661.16;;;7.11;100.00
65800;BME280;52544;48.116;11.660;2023-12-29T03:02:47;95658.75;;;7.08;100.00
65800;BME280;52544;48.116;11.660;2023-12-29T03:05:13;95661.50;;;7.06;100.00
65800;BME280;52544;48.116;11.660;2023-12-29T03:07:39;95658.34;;;7.01;100.00
65800;BME280;52544;48.116;11.660;2023-12-29T03:10:06;95649.88;;;7.09;99.04
65800;BME280;52544;48.116;11.660;2023-12-29T03:12:32;95651.81;;;7.07;98.69
65800;BME280;52544;48.116;11.660;2023-12-29T03:14:57;95641.28;;;7.07;98.30
65800;BME280;52544;48.116;11.660;2023-12-29T03:17:22;95643.06;;;7.06;97.95
65800;BME280;52544;48.116;11.660;2023-12-29T03:19:48;95645.38;;;7.11;96.44
65800;BME280;52544;48.116;11.660;2023-12-29T03:22:13;95647.78;;;7.14;95.52
65800;BME280;52544;48.116;11.660;2023-12-29T03:24:41;95644.38;;;7.24;94.30
65800;BME280;52544;48.116;11.660;2023-12-29T03:27:10;95651.56;;;7.22;94.08
65800;BME280;52544;48.116;11.660;2023-12-29T03:29:36;95646.38;;;7.21;94.33
65800;BME280;52544;48.116;11.660;2023-12-29T03:32:01;95651.25;;;7.14;95.66
65800;BME280;52544;48.116;11.660;2023-12-29T03:34:27;95645.25;;;7.12;96.75
65800;BME280;52544;48.116;11.660;2023-12-29T03:36:52;95651.97;;;7.16;93.99
65800;BME280;52544;48.116;11.660;2023-12-29T03:39:17;95657.44;;;7.13;93.74
65800;BME280;52544;48.116;11.660;2023-12-29T03:41:43;95661.66;;;7.16;93.44
65800;BME280;52544;48.116;11.660;2023-12-29T03:44:09;95649.69;;;7.12;93.19
65800;BME280;52544;48.116;11.660;2023-12-29T03:46:35;95655.16;;;7.09;93.59
65800;BME280;52544;48.116;11.660;2023-12-29T03:49:01;95650.31;;;7.15;92.46
65800;BME280;52544;48.116;11.660;2023-12-29T03:51:26;95648.84;;;7.11;91.17
65800;BME280;52544;48.116;11.660;2023-12-29T03:53:52;95647.88;;;7.12;90.30
65800;BME280;52544;48.116;11.660;2023-12-29T03:56:18;95644.09;;;7.16;89.61
65800;BME280;52544;48.116;11.660;2023-12-29T03:58:47;95650.94;;;7.19;89.14
65800;BME280;52544;48.116;11.660;2023-12-29T04:01:13;95651.03;;;7.17;89.02
65800;BME280;52544;48.116;11.660;2023-12-29T04:03:40;95648.94;;;7.22;88.32
65800;BME280;52544;48.116;11.660;2023-12-29T04:06:06;95641.44;;;7.16;89.32
65800;BME280;52544;48.116;11.660;2023-12-29T04:08:32;95642.50;;;7.26;87.16
65800;BME280;52544;48.116;11.660;2023-12-29T04:10:58;95637.19;;;7.39;86.21
65800;BME280;52544;48.116;11.660;2023-12-29T04:13:23;95631.06;;;7.39;85.73
65800;BME280;52544;48.116;11.660;2023-12-29T04:15:48;95630.44;;;7.48;84.81
65800;BME280;52544;48.116;11.660;2023-12-29T04:18:14;95637.16;;;7.52;84.68
65800;BME280;52544;48.116;11.660;2023-12-29T04:20:39;95628.19;;;7.55;83.85
65800;BME280;52544;48.116;11.660;2023-12-29T04:23:06;95619.22;;;7.57;84.01
65800;BME280;52544;48.116;11.660;2023-12-29T04:25:32;95629.97;;;7.54;84.89
65800;BME280;52544;48.116;11.660;2023-12-29T04:27:58;95625.94;;;7.61;84.42
65800;BME280;52544;48.116;11.660;2023-12-29T04:30:23;95631.44;;;7.58;84.39
65800;BME280;52544;48.116;11.660;2023-12-29T04:32:49;95626.66;;;7.63;84.92
65800;BME280;52544;48.116;11.660;2023-12-29T04:35:14;95624.88;;;7.64;84.49
65800;BME280;52544;48.116;11.660;2023-12-29T04:37:41;95623.75;;;7.55;85.29
65800;BME280;52544;48.116;11.660;2023-12-29T04:40:07;95630.19;;;7.51;86.31
65800;BME280;52544;48.116;11.660;2023-12-29T04:42:32;95627.34;;;7.54;86.34
65800;BME280;52544;48.116;11.660;2023-12-29T04:44:57;95624.81;;;7.53;86.13
65800;BME280;52544;48.116;11.660;2023-12-29T04:47:23;95628.00;;;7.45;86.20
65800;BME280;52544;48.116;11.660;2023-12-29T04:49:48;95630.00;;;7.41;86.37
65800;BME280;52544;48.116;11.660;2023-12-29T04:52:14;95634.31;;;7.42;85.67
65800;BME280;52544;48.116;11.660;2023-12-29T04:54:39;95631.81;;;7.41;84.97
65800;BME280;52544;48.116;11.660;2023-12-29T04:57:04;95626.88;;;7.36;85.18
65800;BME280;52544;48.116;11.660;2023-12-29T04:59:30;95633.94;;;7.36;84.96
65800;BME280;52544;48.116;11.660;2023-12-29T05:01:55;95625.09;;;7.37;84.87
65800;BME280;52544;48.116;11.660;2023-12-29T05:04:20;95634.78;;;7.36;83.89
65800;BME280;52544;48.116;11.660;2023-12-29T05:06:46;95626.97;;;7.35;84.21
65800;BME280;52544;48.116;11.660;2023-12-29T05:09:11;95630.81;;;7.31;84.95
65800;BME280;52544;48.116;11.660;2023-12-29T05:11:37;95637.25;;;7.26;85.30
65800;BME280;52544;48.116;11.660;2023-12-29T05:14:02;95635.47;;;7.14;86.86
65800;BME280;52544;48.116;11.660;2023-12-29T05:16:27;95633.03;;;7.24;86.46
65800;BME280;52544;48.116;11.660;2023-12-29T05:18:53;95625.88;;;7.13;87.16
65800;BME280;52544;48.116;11.660;2023-12-29T05:21:18;95619.69;;;7.14;86.83
65800;BME280;52544;48.116;11.660;2023-12-29T05:23:45;95616.31;;;7.12;87.02
65800;BME280;52544;48.116;11.660;2023-12-29T05:26:16;95618.94;;;7.12;87.88
65800;BME280;52544;48.116;11.660;2023-12-29T05:28:42;95615.31;;;7.26;88.97
65800;BME280;52544;48.116;11.660;2023-12-29T05:31:08;95630.13;;;7.40;87.81
65800;BME280;52544;48.116;11.660;2023-12-29T05:33:34;95623.16;;;7.39;88.23
65800;BME280;52544;48.116;11.660;2023-12-29T05:36:05;95627.06;;;7.46;88.04
65800;BME280;52544;48.116;11.660;2023-12-29T05:38:33;95636.03;;;7.43;90.33
65800;BME280;52544;48.116;11.660;2023-12-29T05:40:58;95627.78;;;7.48;90.45
65800;BME280;52544;48.116;11.660;2023-12-29T05:43:26;95633.34;;;7.56;90.51
65800;BME280;52544;48.116;11.660;2023-12-29T05:45:52;95637.47;;;7.71;88.75
65800;BME280;52544;48.116;11.660;2023-12-29T05:48:17;95631.09;;;7.87;87.37
65800;BME280;52544;48.116;11.660;2023-12-29T05:50:43;95642.06;;;7.81;88.06
65800;BME280;52544;48.116;11.660;2023-12-29T05:53:08;95640.19;;;7.83;87.93
65800;BME280;52544;48.116;11.660;2023-12-29T05:55:33;95633.66;;;7.75;88.83
65800;BME280;52544;48.116;11.660;2023-12-29T05:57:59;95634.84;;;7.71;89.93
65800;BME280;52544;48.116;11.660;2023-12-29T06:00:24;95635.75;;;7.83;88.29
65800;BME280;52544;48.116;11.660;2023-12-29T06:02:49;95644.63;;;7.82;88.64
65800;BME280;52544;48.116;11.660;2023-12-29T06:05:15;95635.00;;;7.81;88.76
65800;BME280;52544;48.116;11.660;2023-12-29T06:07:40;95638.25;;;7.85;87.55
65800;BME280;52544;48.116;11.660;2023-12-29T06:10:06;95638.50;;;7.82;87.40
65800;BME280;52544;48.116;11.660;2023-12-29T06:12:33;95639.34;;;7.82;86.33
65800;BME280;52544;48.116;11.660;2023-12-29T06:14:58;95644.81;;;7.79;86.36
65800;BME280;52544;48.116;11.660;2023-12-29T06:17:24;95651.44;;;7.85;85.10
65800;BME280;52544;48.116;11.660;2023-12-29T06:19:49;95648.38;;;7.91;83.74
65800;BME280;52544;48.116;11.660;2023-12-29T06:22:15;95649.53;;;7.87;83.92
65800;BME280;52544;48.116;11.660;2023-12-29T06:24:41;95657.19;;;7.90;82.39
65800;BME280;52544;48.116;11.660;2023-12-29T06:27:09;95662.25;;;7.93;81.77
65800;BME280;52544;48.116;11.660;2023-12-29T06:29:35;95661.81;;;7.99;80.91
65800;BME280;52544;48.116;11.660;2023-12-29T06:32:02;95660.38;;;8.06;80.42
65800;BME280;52544;48.116;11.660;2023-12-29T06:34:27;95666.00;;;8.01;81.69
65800;BME280;52544;48.116;11.660;2023-12-29T06:36:53;95653.31;;;8.07;81.29
65800;BME280;52544;48.116;11.660;2023-12-29T06:39:18;95650.81;;;8.05;80.92
65800;BME280;52544;48.116;11.660;2023-12-29T06:41:43;95654.41;;;8.04;80.18
65800;BME280;52544;48.116;11.660;2023-12-29T06:44:09;95638.38;;;8.07;79.33
65800;BME280;52544;48.116;11.660;2023-12-29T06:46:39;95656.06;;;8.05;79.54
65800;BME280;52544;48.116;11.660;2023-12-29T06:49:06;95652.47;;;8.06;79.17
65800;BME280;52544;48.116;11.660;2023-12-29T06:51:31;95655.84;;;8.08;78.67
65800;BME280;52544;48.116;11.660;2023-12-29T06:53:57;95652.88;;;8.13;78.38
65800;BME280;52544;48.116;11.660;2023-12-29T06:56:23;95659.13;;;8.12;78.30
65800;BME280;52544;48.116;11.660;2023-12-29T06:58:48;95661.63;;;8.13;78.03
65800;BME280;52544;48.116;11.660;2023-12-29T07:01:14;95653.16;;;7.97;78.87
65800;BME280;52544;48.116;11.660;2023-12-29T07:03:41;95646.84;;;7.99;78.53
65800;BME280;52544;48.116;11.660;2023-12-29T07:06:06;95640.38;;;8.04;78.95
65800;BME280;52544;48.116;11.660;2023-12-29T07:08:32;95647.47;;;8.03;80.17
65800;BME280;52544;48.116;11.660;2023-12-29T07:10:57;95639.88;;;7.98;81.67
65800;BME280;52544;48.116;11.660;2023-12-29T07:13:23;95643.66;;;8.07;83.73
65800;BME280;52544;48.116;11.660;2023-12-29T07:15:49;95643.78;;;8.17;83.84
65800;BME280;52544;48.116;11.660;2023-12-29T07:18:15;95640.31;;;8.16;84.36
65800;BME280;52544;48.116;11.660;2023-12-29T07:20:42;95640.81;;;8.21;85.52
65800;BME280;52544;48.116;11.660;2023-12-29T07:23:07;95651.56;;;8.18;87.26
65800;BME280;52544;48.116;11.660;2023-12-29T07:25:33;95639.84;;;8.22;88.25
65800;BME280;52544;48.116;11.660;2023-12-29T07:27:58;95655.53;;;8.24;89.95
65800;BME280;52544;48.116;11.660;2023-12-29T07:30:23;95651.06;;;8.37;90.67
65800;BME280;52544;48.116;11.660;2023-12-29T07:32:49;95656.50;;;8.47;91.93
65800;BME280;52544;48.116;11.660;2023-12-29T07:35:14;95661.88;;;8.45;92.77
65800;BME280;52544;48.116;11.660;2023-12-29T07:37:43;95669.94;;;8.55;95.07
65800;BME280;52544;48.116;11.660;2023-12-29T07:40:13;95668.41;;;8.64;95.55
65800;BME280;52544;48.116;11.660;2023-12-29T07:42:39;95676.66;;;8.70;96.83
65800;BME280;52544;48.116;11.660;2023-12-29T07:45:05;95668.75;;;8.70;97.19
65800;BME280;52544;48.116;11.660;2023-12-29T07:47:31;95669.72;;;8.69;98.65
65800;BME280;52544;48.116;11.660;2023-12-29T07:49:57;95675.72;;;8.83;98.64
65800;BME280;52544;48.116;11.660;2023-12-29T07:52:22;95675.72;;;8.83;98.68
65800;BME280;52544;48.116;11.660;2023-12-29T07:54:48;95682.19;;;8.79;99.70
65800;BME280;52544;48.116;11.660;2023-12-29T07:57:14;95679.47;;;8.80;100.00
65800;BME280;52544;48.116;11.660;2023-12-29T07:59:39;95694.19;;;8.83;100.00
65800;BME280;52544;48.116;11.660;2023-12-29T08:02:05;95681.25;;;8.80;100.00
65800;BME280;52544;48.116;11.660;2023-12-29T08:04:31;95695.16;;;8.82;99.07
65800;BME280;52544;48.116;11.660;2023-12-29T08:06:56;95699.97;;;8.76;98.65
65800;BME280;52544;48.116;11.660;2023-12-29T08:09:21;95690.13;;;8.79;98.26
65800;BME280;52544;48.116;11.660;2023-12-29T08:11:47;95688.66;;;8.74;98.23
65800;BME280;52544;48.116;11.660;2023-12-29T08:14:13;95688.56;;;8.76;98.19
65800;BME280;52544;48.116;11.660;2023-12-29T08:16:39;95689.28;;;8.78;98.43
65800;BME280;52544;48.116;11.660;2023-12-29T08:19:05;95684.84;;;8.79;98.82
65800;BME280;52544;48.116;11.660;2023-12-29T08:21:31;95679.47;;;8.80;98.73
65800;BME280;52544;48.116;11.660;2023-12-29T08:23:57;95685.78;;;8.77;99.38
65800;BME280;52544;48.116;11.660;2023-12-29T08:26:22;95687.72;;;8.75;100.00
65800;BME280;52544;48.116;11.660;2023-12-29T08:28:48;95674.19;;;8.80;100.00
65800;BME280;52544;48.116;11.660;2023-12-29T08:31:14;95683.28;;;8.76;100.00
65800;BME280;52544;48.116;11.660;2023-12-29T08:33:40;95681.75;;;8.85;100.00
65800;BME280;52544;48.116;11.660;2023-12-29T08:36:06;95678.97;;;8.86;100.00
65800;BME280;52544;48.116;11.660;2023-12-29T08:38:32;95678.50;;;8.81;100.00
65800;BME280;52544;48.116;11.660;2023-12-29T08:40:58;95681.25;;;8.91;100.00
65800;BME280;52544;48.116;11.660;2023-12-29T08:43:23;95692.16;;;8.86;100.00
65800;BME280;52544;48.116;11.660;2023-12-29T08:45:49;95687.88;;;8.96;100.00
65800;BME280;52544;48.116;11.660;2023-12-29T08:48:14;95684.38;;;8.96;100.00
65800;BME280;52544;48.116;11.660;2023-12-29T08:50:39;95680.53;;;9.00;100.00
65800;BME280;52544;48.116;11.660;2023-12-29T08:53:05;95681.97;;;9.04;100.00
65800;BME280;52544;48.116;11.660;2023-12-29T08:55:30;95682.50;;;9.09;100.00
65800;BME280;52544;48.116;11.660;2023-12-29T08:57:57;95678.16;;;9.08;100.00
65800;BME280;52544;48.116;11.660;2023-12-29T09:00:22;95670.97;;;9.10;100.00
65800;BME280;52544;48.116;11.660;2023-12-29T09:02:48;95679.72;;;9.11;100.00
65800;BME280;52544;48.116;11.660;2023-12-29T09:05:14;95672.41;;;9.14;100.00
65800;BME280;52544;48.116;11.660;2023-12-29T09:07:39;95690.53;;;9.19;100.00
65800;BME280;52544;48.116;11.660;2023-12-29T09:10:05;95686.31;;;9.27;100.00
65800;BME280;52544;48.116;11.660;2023-12-29T09:12:34;95691.13;;;9.22;100.00
65800;BME280;52544;48.116;11.660;2023-12-29T09:14:59;95687.53;;;9.23;100.00
65800;BME280;52544;48.116;11.660;2023-12-29T09:17:25;95691.97;;;9.23;100.00
65800;BME280;52544;48.116;11.660;2023-12-29T09:19:50;95683.81;;;9.26;100.00
65800;BME280;52544;48.116;11.660;2023-12-29T09:22:15;95681.03;;;9.27;100.00
65800;BME280;52544;48.116;11.660;2023-12-29T09:24:42;95691.09;;;9.34;100.00
65800;BME280;52544;48.116;11.660;2023-12-29T09:27:07;95691.72;;;9.37;100.00
65800;BME280;52544;48.116;11.660;2023-12-29T09:29:33;95698.81;;;9.48;100.00
65800;BME280;52544;48.116;11.660;2023-12-29T09:31:58;95697.59;;;9.52;100.00
65800;BME280;52544;48.116;11.660;2023-12-29T09:34:24;95691.44;;;9.63;100.00
65800;BME280;52544;48.116;11.660;2023-12-29T09:36:49;95698.16;;;9.67;100.00
65800;BME280;52544;48.116;11.660;2023-12-29T09:39:14;95696.72;;;9.74;100.00
65800;BME280;52544;48.116;11.660;2023-12-29T09:41:42;95689.25;;;9.79;100.00
65800;BME280;52544;48.116;11.660;2023-12-29T09:44:13;95677.94;;;9.88;100.00
65800;BME280;52544;48.116;11.660;2023-12-29T09:46:41;95677.09;;;9.88;100.00
65800;BME280;52544;48.116;11.660;2023-12-29T09:49:08;95671.31;;;9.94;100.00
65800;BME280;52544;48.116;11.660;2023-12-29T09:51:35;95678.00;;;9.98;100.00
65800;BME280;52544;48.116;11.660;2023-12-29T09:54:01;95679.22;;;10.05;100.00
65800;BME280;52544;48.116;11.660;2023-12-29T09:56:28;95678.97;;;10.08;100.00
65800;BME280;52544;48.116;11.660;2023-12-29T09:58:54;95681.00;;;10.05;100.00
65800;BME280;52544;48.116;11.660;2023-12-29T10:01:21;95684.50;;;10.05;100.00
65800;BME280;52544;48.116;11.660;2023-12-29T10:03:47;95673.28;;;10.13;100.00
65800;BME280;52544;48.116;11.660;2023-12-29T10:06:17;95667.28;;;10.11;100.00
65800;BME280;52544;48.116;11.660;2023-12-29T10:08:46;95660.53;;;10.18;99.35
65800;BME280;52544;48.116;11.660;2023-12-29T10:11:14;95670.03;;;10.20;100.00
65800;BME280;52544;48.116;11.660;2023-12-29T10:13:42;95651.25;;;10.23;100.00
65800;BME280;52544;48.116;11.660;2023-12-29T10:16:38;95642.97;;;10.28;100.00
65800;BME280;52544;48.116;11.660;2023-12-29T10:22:05;95652.44;;;10.31;100.00
65800;BME280;52544;48.116;11.660;2023-12-29T10:24:34;95646.19;;;10.32;100.00
65800;BME280;52544;48.116;11.660;2023-12-29T10:27:00;95652.19;;;10.34;100.00
65800;BME280;52544;48.116;11.660;2023-12-29T10:29:27;95638.97;;;10.34;100.00
65800;BME280;52544;48.116;11.660;2023-12-29T10:31:53;95634.06;;;10.29;100.00
65800;BME280;52544;48.116;11.660;2023-12-29T10:34:22;95631.03;;;10.34;100.00
65800;BME280;52544;48.116;11.660;2023-12-29T10:36:56;95624.72;;;10.46;100.00
65800;BME280;52544;48.116;11.660;2023-12-29T10:39:21;95622.06;;;10.46;100.00
65800;BME280;52544;48.116;11.660;2023-12-29T10:41:47;95621.94;;;10.47;100.00
65800;BME280;52544;48.116;11.660;2023-12-29T10:44:13;95622.78;;;10.48;100.00
65800;BME280;52544;48.116;11.660;2023-12-29T10:46:38;95617.22;;;10.51;100.00
65800;BME280;52544;48.116;11.660;2023-12-29T10:49:12;95610.97;;;10.52;100.00
65800;BME280;52544;48.116;11.660;2023-12-29T10:51:38;95612.00;;;10.61;100.00
65800;BME280;52544;48.116;11.660;2023-12-29T10:54:04;95608.69;;;10.68;100.00
65800;BME280;52544;48.116;11.660;2023-12-29T10:56:31;95603.53;;;10.67;100.00
65800;BME280;52544;48.116;11.660;2023-12-29T10:58:57;95599.19;;;10.66;100.00
65800;BME280;52544;48.116;11.660;2023-12-29T11:01:23;95600.09;;;10.76;100.00
65800;BME280;52544;48.116;11.660;2023-12-29T11:03:57;95606.09;;;10.78;100.00
65800;BME280;52544;48.116;11.660;2023-12-29T11:06:23;95591.19;;;10.77;100.00
65800;BME280;52544;48.116;11.660;2023-12-29T11:08:49;95582.00;;;10.81;100.00
65800;BME280;52544;48.116;11.660;2023-12-29T11:11:14;95582.84;;;10.82;100.00
65800;BME280;52544;48.116;11.660;2023-12-29T11:13:40;95592.19;;;10.86;100.00
65800;BME280;52544;48.116;11.660;2023-12-29T11:16:06;95580.13;;;10.93;100.00
65800;BME280;52544;48.116;11.660;2023-12-29T11:18:32;95587.41;;;11.00;100.00
65800;BME280;52544;48.116;11.660;2023-12-29T11:20:59;95579.06;;;11.15;100.00
65800;BME280;52544;48.116;11.660;2023-12-29T11:23:24;95580.47;;;11.19;100.00
65800;BME280;52544;48.116;11.660;2023-12-29T11:25:50;95578.03;;;11.37;100.00
65800;BME280;52544;48.116;11.660;2023-12-29T11:28:16;95568.56;;;11.44;100.00
65800;BME280;52544;48.116;11.660;2023-12-29T11:30:41;95569.66;;;11.41;100.00
65800;BME280;52544;48.116;11.660;2023-12-29T11:33:26;95579.16;;;11.34;100.00
65800;BME280;52544;48.116;11.660;2023-12-29T11:36:15;95574.38;;;11.38;100.00
65800;BME280;52544;48.116;11.660;2023-12-29T11:41:40;95571.03;;;11.26;100.00
65800;BME280;52544;48.116;11.660;2023-12-29T11:44:06;95582.72;;;11.23;100.00
65800;BME280;52544;48.116;11.660;2023-12-29T11:46:39;95576.63;;;11.33;100.00
65800;BME280;52544;48.116;11.660;2023-12-29T11:49:05;95575.47;;;11.25;100.00
65800;BME280;52544;48.116;11.660;2023-12-29T11:51:44;95565.28;;;11.21;100.00
65800;BME280;52544;48.116;11.660;2023-12-29T11:54:09;95558.88;;;11.23;100.00
65800;BME280;52544;48.116;11.660;2023-12-29T11:59:20;95568.25;;;11.27;100.00
65800;BME280;52544;48.116;11.660;2023-12-29T12:01:48;95565.44;;;11.19;100.00
65800;BME280;52544;48.116;11.660;2023-12-29T12:04:33;95565.44;;;11.19;100.00
65800;BME280;52544;48.116;11.660;2023-12-29T12:06:59;95557.88;;;11.15;100.00
65800;BME280;52544;48.116;11.660;2023-12-29T12:09:24;95556.63;;;11.09;100.00
65800;BME280;52544;48.116;11.660;2023-12-29T12:11:50;95553.97;;;11.09;100.00
65800;BME280;52544;48.116;11.660;2023-12-29T12:20:07;95543.81;;;11.14;100.00
65800;BME280;52544;48.116;11.660;2023-12-29T12:22:37;95559.88;;;11.22;100.00
65800;BME280;52544;48.116;11.660;2023-12-29T12:25:03;95552.19;;;11.19;100.00
65800;BME280;52544;48.116;11.660;2023-12-29T12:27:30;95552.19;;;11.19;100.00
65800;BME280;52544;48.116;11.660;2023-12-29T12:29:56;95551.50;;;11.17;100.00
65800;BME280;52544;48.116;11.660;2023-12-29T12:32:24;95554.28;;;11.25;100.00
65800;BME280;52544;48.116;11.660;2023-12-29T12:34:50;95549.53;;;11.19;100.00
65800;BME280;52544;48.116;11.660;2023-12-29T12:37:23;95539.50;;;11.23;100.00
65800;BME280;52544;48.116;11.660;2023-12-29T12:39:49;95550.94;;;11.23;100.00
65800;BME280;52544;48.116;11.660;2023-12-29T12:42:16;95545.66;;;11.23;100.00
65800;BME280;52544;48.116;11.660;2023-12-29T12:45:03;95552.91;;;11.21;100.00
65800;BME280;52544;48.116;11.660;2023-12-29T12:47:37;95548.97;;;11.16;100.00
65800;BME280;52544;48.116;11.660;2023-12-29T12:50:04;95547.88;;;11.18;100.00
65800;BME280;52544;48.116;11.660;2023-12-29T12:52:35;95556.91;;;11.16;100.00
65800;BME280;52544;48.116;11.660;2023-12-29T12:55:01;95552.03;;;11.11;100.00
65800;BME280;52544;48.116;11.660;2023-12-29T12:57:27;95547.28;;;11.15;100.00
65800;BME280;52544;48.116;11.660;2023-12-29T12:59:53;95539.50;;;11.13;100.00
65800;BME280;52544;48.116;11.660;2023-12-29T13:02:19;95544.22;;;11.10;100.00
65800;BME280;52544;48.116;11.660;2023-12-29T13:04:45;95546.88;;;11.10;100.00
65800;BME280;52544;48.116;11.660;2023-12-29T13:07:15;95550.59;;;11.07;100.00